< < Back
Terminal Aerodrome Forecast


Current Version              Previous Versions:   1  2  3  4  5  6  7  8  9  

Terminal Aerodrome Forecast

621
FTUS44 KOHX 290500
TAFBNA
TAF
KBNA 290537Z 2906/3006 35006KT P6SM SKC
     FM291500 36012KT P6SM SCT050=

Latest METAR

413
SAUS70 KWBC 291100 RRH
MTRBNA
METAR KBNA 291053Z 35004KT 10SM FEW150 16/11 A3006 RMK AO2 SLP173
T01610111


USA.gov is the U.S. government's official web portal to all federal, state and local government web resources and services.